createdAt,value
2019-02-12T16:26:30.280Z,74.98
2019-02-12T16:30:30.685Z,75.22
2019-02-12T16:34:31.000Z,74.89
2019-02-12T16:38:31.304Z,75.28
2019-02-12T16:42:31.635Z,75.82
2019-02-12T16:46:31.933Z,74.99
2019-02-12T16:50:32.248Z,75.44
2019-02-12T16:54:32.551Z,74.68
2019-02-12T16:58:32.883Z,74.68
2019-02-12T17:02:35.244Z,75.13
2019-02-12T17:06:35.647Z,74.97
2019-02-12T17:10:35.967Z,75.28
2019-02-12T17:14:36.266Z,75.47
2019-02-12T17:18:36.580Z,75.45
2019-02-12T17:22:36.878Z,75.42
2019-02-12T17:26:37.186Z,75.99
2019-02-12T17:30:37.486Z,75.59
2019-02-12T17:34:38.817Z,75.90
2019-02-12T17:38:39.117Z,75.87
2019-02-12T17:42:39.440Z,75.53
2019-02-12T17:46:39.741Z,75.47
2019-02-12T17:50:40.052Z,76.38
2019-02-12T17:54:40.369Z,75.95
2019-02-12T17:58:41.645Z,75.66
2019-02-12T18:02:41.941Z,75.57
2019-02-12T18:06:42.267Z,75.73
2019-02-12T18:10:42.687Z,75.85
2019-02-12T18:14:43.097Z,76.18
2019-02-12T18:18:43.404Z,76.05
2019-02-12T18:22:43.700Z,76.42
2019-02-12T18:26:44.008Z,76.05
2019-02-12T18:30:44.358Z,76.13
2019-02-12T18:34:44.674Z,76.42
2019-02-12T18:38:45.940Z,76.38
2019-02-12T18:42:46.256Z,76.35
2019-02-12T18:46:46.559Z,76.71
2019-02-12T18:50:46.883Z,76.81
2019-02-12T18:54:48.258Z,77.08
2019-02-12T18:58:48.563Z,77.33
2019-02-12T19:02:48.914Z,77.05
2019-02-12T19:06:49.227Z,77.64
2019-02-12T19:10:49.562Z,77.68
2019-02-12T19:14:49.869Z,77.90
2019-02-12T19:18:50.442Z,78.32
2019-02-12T19:22:50.744Z,78.50
2019-02-12T19:26:51.049Z,78.33
2019-02-12T19:30:51.368Z,78.31
2019-02-12T19:34:51.743Z,78.52
2019-02-12T19:38:52.045Z,78.45
2019-02-12T19:42:52.369Z,78.53
2019-02-12T19:46:52.699Z,78.76
2019-02-12T19:50:53.021Z,78.96
2019-02-12T19:54:53.338Z,78.82
2019-02-12T19:58:53.633Z,78.79
2019-02-12T20:02:53.955Z,79.08
2019-02-12T20:06:54.276Z,79.11
2019-02-12T20:10:55.259Z,79.29
2019-02-12T20:14:55.585Z,79.63
2019-02-12T20:18:55.890Z,79.61
2019-02-12T20:22:56.204Z,79.44
2019-02-12T20:26:56.519Z,79.49
2019-02-12T20:30:56.821Z,79.20
2019-02-12T20:34:58.072Z,79.19
2019-02-12T20:38:58.390Z,79.26
2019-02-12T20:42:58.707Z,79.31
2019-02-12T20:46:59.005Z,79.31
2019-02-12T20:50:59.321Z,79.12
2019-02-12T20:54:59.633Z,79.10
2019-02-12T20:58:59.938Z,79.11
2019-02-12T21:03:00.235Z,79.04
2019-02-12T21:07:00.553Z,79.07
2019-02-12T21:11:01.530Z,79.15
2019-02-12T21:15:01.867Z,78.78
2019-02-12T21:19:02.316Z,79.05
2019-02-12T21:23:02.636Z,79.59
2019-02-12T21:27:02.962Z,79.20
2019-02-12T21:31:03.270Z,79.11
2019-02-12T21:35:04.526Z,79.25
2019-02-12T21:39:06.971Z,79.21
2019-02-12T21:43:07.285Z,79.10
2019-02-12T21:47:11.821Z,78.79
2019-02-12T21:51:12.144Z,79.09
2019-02-12T21:55:18.878Z,78.87
2019-02-12T21:59:19.247Z,78.43
2019-02-12T22:03:21.341Z,78.74
2019-02-12T22:07:21.520Z,78.57
2019-02-12T22:11:31.854Z,78.22
2019-02-12T22:15:32.176Z,78.18
2019-02-12T22:19:32.484Z,78.09
2019-02-12T22:23:32.866Z,78.25
2019-02-12T22:27:40.193Z,78.18
2019-02-12T22:31:35.185Z,78.21
2019-02-12T22:35:35.487Z,78.00
2019-02-12T22:39:35.814Z,77.92
2019-02-12T22:43:36.111Z,77.77
2019-02-12T22:47:36.430Z,77.66
2019-02-12T22:51:36.755Z,77.68
2019-02-12T22:55:37.053Z,78.00
2019-02-12T22:59:37.371Z,77.69
2019-02-12T23:03:37.690Z,77.67
2019-02-12T23:07:37.999Z,77.70
2019-02-12T23:11:38.296Z,77.59
2019-02-12T23:15:38.610Z,77.60
2019-02-12T23:19:38.918Z,77.36
2019-02-12T23:23:39.296Z,77.17
2019-02-12T23:27:39.671Z,77.56
2019-02-12T23:31:39.974Z,77.24
2019-02-12T23:35:40.294Z,77.19
2019-02-12T23:39:40.674Z,77.08
2019-02-12T23:43:40.990Z,76.53
2019-02-12T23:47:41.334Z,76.49
2019-02-12T23:51:41.641Z,76.28
2019-02-12T23:55:41.982Z,76.22
2019-02-12T23:59:42.304Z,76.09
